< < Back
Terminal Aerodrome Forecast


Current Version              Previous Versions:   1  2  3  4  5  6  7  8  9  

Terminal Aerodrome Forecast

526
FTUS42 KFFC 292333
TAFFTY
TAF
KFTY 292333Z 3000/3024 17005KT P6SM BKN060
     FM300500 VRB03KT P6SM BKN035
     FM301100 23006KT 6SM -RA BR OVC012
     FM301300 25008KT 5SM -RA BR BKN008 OVC012
     FM301600 29012KT P6SM BKN035
     FM302000 30014KT P6SM FEW035=



Latest METAR

468
SAUS70 KWBC 300400 RRC
MTRFTY
METAR KFTY 300353Z 17005KT 10SM CLR 13/M03 A3022 RMK AO2 SLP232
T01281028


USA.gov is the U.S. government's official web portal to all federal, state and local government web resources and services.